sensor_id;sensor_type;location;lat;lon;timestamp;pressure;altitude;pressure_sealevel;temperature;humidity
36284;BME280;56085;48.910;9.478;2023-05-10T00:01:25;97435.78;;;33.97;22.75
36284;BME280;56085;48.910;9.478;2023-05-10T00:03:51;97388.97;;;34.73;23.21
36284;BME280;56085;48.910;9.478;2023-05-10T00:06:16;97393.94;;;33.69;23.02
36284;BME280;56085;48.910;9.478;2023-05-10T00:08:42;97418.88;;;34.13;23.27
36284;BME280;56085;48.910;9.478;2023-05-10T00:11:07;97399.75;;;34.02;23.30
36284;BME280;56085;48.910;9.478;2023-05-10T00:13:32;97375.16;;;34.06;23.54
36284;BME280;56085;48.910;9.478;2023-05-10T00:15:57;97383.16;;;34.92;23.40
36284;BME280;56085;48.910;9.478;2023-05-10T00:18:23;97392.09;;;34.88;23.30
36284;BME280;56085;48.910;9.478;2023-05-10T00:20:48;97395.53;;;35.40;23.36
36284;BME280;56085;48.910;9.478;2023-05-10T00:23:14;97416.16;;;33.19;23.74
36284;BME280;56085;48.910;9.478;2023-05-10T00:25:39;97417.63;;;33.01;23.31
36284;BME280;56085;48.910;9.478;2023-05-10T00:28:04;97433.75;;;34.11;23.99
36284;BME280;56085;48.910;9.478;2023-05-10T00:30:30;97405.63;;;33.71;23.49
36284;BME280;56085;48.910;9.478;2023-05-10T00:32:55;97436.69;;;33.23;24.01
36284;BME280;56085;48.910;9.478;2023-05-10T00:35:20;97437.50;;;33.87;23.44
36284;BME280;56085;48.910;9.478;2023-05-10T00:37:46;97403.78;;;33.74;23.71
36284;BME280;56085;48.910;9.478;2023-05-10T00:40:12;97423.84;;;32.81;23.59
36284;BME280;56085;48.910;9.478;2023-05-10T00:42:37;97440.31;;;32.99;23.69
36284;BME280;56085;48.910;9.478;2023-05-10T00:45:03;97442.34;;;32.80;24.21
36284;BME280;56085;48.910;9.478;2023-05-10T00:47:28;97444.88;;;32.53;24.28
36284;BME280;56085;48.910;9.478;2023-05-10T00:49:53;97424.41;;;32.74;24.31
36284;BME280;56085;48.910;9.478;2023-05-10T00:52:20;97461.81;;;31.45;24.11
36284;BME280;56085;48.910;9.478;2023-05-10T00:54:48;97432.69;;;31.63;24.36
36284;BME280;56085;48.910;9.478;2023-05-10T00:57:14;97414.66;;;31.80;24.44
36284;BME280;56085;48.910;9.478;2023-05-10T00:59:39;97468.66;;;31.89;24.42
36284;BME280;56085;48.910;9.478;2023-05-10T01:02:06;97520.66;;;32.41;24.54
36284;BME280;56085;48.910;9.478;2023-05-10T01:04:31;97484.19;;;31.29;24.57
36284;BME280;56085;48.910;9.478;2023-05-10T01:06:57;97465.69;;;31.47;24.67
36284;BME280;56085;48.910;9.478;2023-05-10T01:09:22;97489.94;;;30.73;24.81
36284;BME280;56085;48.910;9.478;2023-05-10T01:11:48;97542.34;;;30.70;25.01
36284;BME280;56085;48.910;9.478;2023-05-10T01:14:14;97523.66;;;30.63;24.75
36284;BME280;56085;48.910;9.478;2023-05-10T01:16:41;97531.72;;;31.15;25.16
36284;BME280;56085;48.910;9.478;2023-05-10T01:19:14;97596.50;;;31.89;25.01
36284;BME280;56085;48.910;9.478;2023-05-10T01:24:33;97447.38;;;31.84;25.35
36284;BME280;56085;48.910;9.478;2023-05-10T01:27:19;97582.34;;;31.15;25.28
36284;BME280;56085;48.910;9.478;2023-05-10T01:38:19;97575.38;;;32.20;25.41
36284;BME280;56085;48.910;9.478;2023-05-10T01:46:37;97620.47;;;31.06;25.37
36284;BME280;56085;48.910;9.478;2023-05-10T01:49:11;97646.94;;;31.75;25.55
36284;BME280;56085;48.910;9.478;2023-05-10T01:51:41;97586.75;;;31.10;25.68
36284;BME280;56085;48.910;9.478;2023-05-10T01:54:09;97532.47;;;30.59;25.54
36284;BME280;56085;48.910;9.478;2023-05-10T01:56:37;97508.56;;;31.30;25.68
36284;BME280;56085;48.910;9.478;2023-05-10T01:59:06;97598.91;;;31.67;25.50
36284;BME280;56085;48.910;9.478;2023-05-10T02:01:36;97643.56;;;31.71;25.57
36284;BME280;56085;48.910;9.478;2023-05-10T02:04:02;97548.56;;;32.65;25.59
36284;BME280;56085;48.910;9.478;2023-05-10T02:06:28;97506.69;;;32.67;25.65
36284;BME280;56085;48.910;9.478;2023-05-10T02:08:54;97490.25;;;31.79;25.48
36284;BME280;56085;48.910;9.478;2023-05-10T02:11:20;97536.03;;;31.73;25.87
36284;BME280;56085;48.910;9.478;2023-05-10T02:13:48;97578.41;;;31.41;25.75
36284;BME280;56085;48.910;9.478;2023-05-10T02:16:16;97597.38;;;32.36;25.52
36284;BME280;56085;48.910;9.478;2023-05-10T02:18:42;97506.00;;;32.50;25.53
36284;BME280;56085;48.910;9.478;2023-05-10T02:21:09;97536.03;;;32.74;25.67
36284;BME280;56085;48.910;9.478;2023-05-10T02:23:35;97492.88;;;32.71;25.42
36284;BME280;56085;48.910;9.478;2023-05-10T02:26:02;97561.22;;;32.39;25.45
36284;BME280;56085;48.910;9.478;2023-05-10T02:28:29;97509.09;;;32.16;25.34
36284;BME280;56085;48.910;9.478;2023-05-10T02:30:55;97512.81;;;31.99;25.36
36284;BME280;56085;48.910;9.478;2023-05-10T02:33:21;97563.00;;;31.83;25.55
36284;BME280;56085;48.910;9.478;2023-05-10T02:35:48;97558.13;;;32.31;25.48
36284;BME280;56085;48.910;9.478;2023-05-10T02:38:14;97606.63;;;31.95;25.61
36284;BME280;56085;48.910;9.478;2023-05-10T02:40:42;97588.75;;;31.78;25.50
36284;BME280;56085;48.910;9.478;2023-05-10T02:43:12;97610.03;;;31.88;25.51
36284;BME280;56085;48.910;9.478;2023-05-10T02:45:39;97540.66;;;32.82;25.39
36284;BME280;56085;48.910;9.478;2023-05-10T02:48:05;97525.59;;;32.76;25.76
36284;BME280;56085;48.910;9.478;2023-05-10T02:50:33;97622.28;;;32.47;25.55
36284;BME280;56085;48.910;9.478;2023-05-10T02:53:08;97588.84;;;33.09;25.42
36284;BME280;56085;48.910;9.478;2023-05-10T02:55:39;97622.03;;;32.93;25.22
36284;BME280;56085;48.910;9.478;2023-05-10T02:58:06;97572.09;;;32.88;25.49
36284;BME280;56085;48.910;9.478;2023-05-10T03:00:31;97539.03;;;32.87;25.55
36284;BME280;56085;48.910;9.478;2023-05-10T03:02:57;97520.41;;;32.75;25.45
36284;BME280;56085;48.910;9.478;2023-05-10T03:05:22;97549.56;;;31.61;25.17
36284;BME280;56085;48.910;9.478;2023-05-10T03:07:48;97529.38;;;32.54;25.68
36284;BME280;56085;48.910;9.478;2023-05-10T03:10:13;97552.81;;;31.99;25.18
36284;BME280;56085;48.910;9.478;2023-05-10T03:15:28;97650.56;;;33.04;25.43
36284;BME280;56085;48.910;9.478;2023-05-10T03:18:09;97644.00;;;32.09;25.42
36284;BME280;56085;48.910;9.478;2023-05-10T03:20:39;97662.81;;;32.57;25.22
36284;BME280;56085;48.910;9.478;2023-05-10T03:23:35;97623.97;;;32.20;25.31
36284;BME280;56085;48.910;9.478;2023-05-10T03:26:04;97588.00;;;33.19;25.28
36284;BME280;56085;48.910;9.478;2023-05-10T03:28:30;97593.44;;;32.87;25.56
36284;BME280;56085;48.910;9.478;2023-05-10T03:30:57;97596.78;;;33.27;25.19
36284;BME280;56085;48.910;9.478;2023-05-10T03:33:23;97537.56;;;33.11;25.21
36284;BME280;56085;48.910;9.478;2023-05-10T03:35:48;97529.13;;;33.49;25.26
36284;BME280;56085;48.910;9.478;2023-05-10T03:38:13;97536.03;;;32.74;25.75
36284;BME280;56085;48.910;9.478;2023-05-10T03:40:39;97552.81;;;33.49;25.31
36284;BME280;56085;48.910;9.478;2023-05-10T03:43:04;97534.84;;;33.73;24.97
36284;BME280;56085;48.910;9.478;2023-05-10T03:45:29;97524.22;;;32.88;25.02
36284;BME280;56085;48.910;9.478;2023-05-10T03:47:56;97629.91;;;33.53;24.91
36284;BME280;56085;48.910;9.478;2023-05-10T03:50:22;97530.63;;;33.80;24.79
36284;BME280;56085;48.910;9.478;2023-05-10T03:52:47;97539.09;;;33.91;25.08
36284;BME280;56085;48.910;9.478;2023-05-10T03:55:12;97571.81;;;33.22;24.92
36284;BME280;56085;48.910;9.478;2023-05-10T03:57:38;97548.66;;;33.75;25.09
36284;BME280;56085;48.910;9.478;2023-05-10T04:00:04;97584.19;;;33.05;24.57
36284;BME280;56085;48.910;9.478;2023-05-10T04:02:29;97566.00;;;33.33;25.17
36284;BME280;56085;48.910;9.478;2023-05-10T04:04:55;97517.13;;;32.95;25.04
36284;BME280;56085;48.910;9.478;2023-05-10T04:07:20;97541.44;;;32.83;25.19
36284;BME280;56085;48.910;9.478;2023-05-10T04:09:46;97566.81;;;32.14;25.05
36284;BME280;56085;48.910;9.478;2023-05-10T04:12:11;97517.31;;;32.31;25.16
36284;BME280;56085;48.910;9.478;2023-05-10T04:14:37;97572.88;;;31.88;24.81
36284;BME280;56085;48.910;9.478;2023-05-10T04:17:02;97544.78;;;32.45;24.83
36284;BME280;56085;48.910;9.478;2023-05-10T04:19:31;97644.66;;;34.12;24.64
36284;BME280;56085;48.910;9.478;2023-05-10T04:21:56;97547.75;;;33.86;25.05
36284;BME280;56085;48.910;9.478;2023-05-10T04:24:22;97516.84;;;34.17;24.96
36284;BME280;56085;48.910;9.478;2023-05-10T04:26:47;97567.84;;;34.05;24.55
36284;BME280;56085;48.910;9.478;2023-05-10T04:29:12;97550.50;;;33.48;24.53
36284;BME280;56085;48.910;9.478;2023-05-10T04:31:38;97539.19;;;32.64;24.48
36284;BME280;56085;48.910;9.478;2023-05-10T04:34:03;97551.81;;;33.47;24.92
36284;BME280;56085;48.910;9.478;2023-05-10T04:36:28;97575.84;;;33.38;24.48
36284;BME280;56085;48.910;9.478;2023-05-10T04:38:54;97559.00;;;32.62;24.75
36284;BME280;56085;48.910;9.478;2023-05-10T04:41:19;97554.88;;;32.94;24.84
36284;BME280;56085;48.910;9.478;2023-05-10T04:43:45;97513.09;;;33.10;24.71
36284;BME280;56085;48.910;9.478;2023-05-10T04:46:11;97589.31;;;32.35;24.82
36284;BME280;56085;48.910;9.478;2023-05-10T04:48:36;97566.53;;;32.07;24.78
36284;BME280;56085;48.910;9.478;2023-05-10T04:51:01;97615.25;;;31.61;24.88
36284;BME280;56085;48.910;9.478;2023-05-10T04:53:29;97592.06;;;31.88;24.71
36284;BME280;56085;48.910;9.478;2023-05-10T04:55:54;97568.31;;;32.74;25.01
36284;BME280;56085;48.910;9.478;2023-05-10T04:58:19;97551.94;;;32.27;25.04
36284;BME280;56085;48.910;9.478;2023-05-10T05:00:44;97616.13;;;32.32;24.99
36284;BME280;56085;48.910;9.478;2023-05-10T05:03:10;97577.50;;;32.56;25.02
36284;BME280;56085;48.910;9.478;2023-05-10T05:05:35;97575.09;;;33.37;24.66
36284;BME280;56085;48.910;9.478;2023-05-10T05:08:00;97583.44;;;33.35;24.76
36284;BME280;56085;48.910;9.478;2023-05-10T05:10:26;97552.81;;;33.49;24.70
36284;BME280;56085;48.910;9.478;2023-05-10T05:12:51;97606.03;;;33.09;24.67
36284;BME280;56085;48.910;9.478;2023-05-10T05:15:16;97590.06;;;32.88;24.65
36284;BME280;56085;48.910;9.478;2023-05-10T05:17:42;97608.25;;;33.27;24.75
36284;BME280;56085;48.910;9.478;2023-05-10T05:20:08;97637.16;;;32.87;25.06
36284;BME280;56085;48.910;9.478;2023-05-10T05:22:35;97663.72;;;33.85;24.63
36284;BME280;56085;48.910;9.478;2023-05-10T05:25:01;97599.31;;;33.36;24.96
36284;BME280;56085;48.910;9.478;2023-05-10T05:27:27;97611.28;;;33.65;24.83
36284;BME280;56085;48.910;9.478;2023-05-10T05:29:53;97608.56;;;33.48;25.05
36284;BME280;56085;48.910;9.478;2023-05-10T05:32:19;97587.03;;;33.05;24.70
36284;BME280;56085;48.910;9.478;2023-05-10T05:34:45;97594.66;;;33.58;24.55
36284;BME280;56085;48.910;9.478;2023-05-10T05:37:18;97704.78;;;34.23;24.32
36284;BME280;56085;48.910;9.478;2023-05-10T05:39:44;97616.03;;;33.57;24.89
36284;BME280;56085;48.910;9.478;2023-05-10T05:42:10;97625.81;;;33.98;24.72
36284;BME280;56085;48.910;9.478;2023-05-10T05:44:36;97609.94;;;33.97;24.90
36284;BME280;56085;48.910;9.478;2023-05-10T05:47:02;97640.78;;;33.30;24.46
36284;BME280;56085;48.910;9.478;2023-05-10T05:49:27;97616.66;;;33.74;24.79
36284;BME280;56085;48.910;9.478;2023-05-10T05:51:52;97610.59;;;33.84;24.19
36284;BME280;56085;48.910;9.478;2023-05-10T05:54:18;97625.22;;;33.80;24.20
36284;BME280;56085;48.910;9.478;2023-05-10T05:56:43;97619.88;;;34.15;24.36
36284;BME280;56085;48.910;9.478;2023-05-10T05:59:09;97608.25;;;34.07;24.47
36284;BME280;56085;48.910;9.478;2023-05-10T06:01:35;97591.25;;;34.53;24.50
36284;BME280;56085;48.910;9.478;2023-05-10T06:04:00;97618.34;;;33.89;24.26
36284;BME280;56085;48.910;9.478;2023-05-10T06:06:25;97565.34;;;33.46;24.69
36284;BME280;56085;48.910;9.478;2023-05-10T06:08:51;97619.94;;;33.29;24.56
36284;BME280;56085;48.910;9.478;2023-05-10T06:11:16;97634.34;;;34.28;24.53
36284;BME280;56085;48.910;9.478;2023-05-10T06:13:41;97615.19;;;34.74;24.24
36284;BME280;56085;48.910;9.478;2023-05-10T06:16:07;97612.97;;;34.04;24.03
36284;BME280;56085;48.910;9.478;2023-05-10T06:18:32;97678.75;;;33.66;24.51
36284;BME280;56085;48.910;9.478;2023-05-10T06:20:58;97620.81;;;33.49;24.61
36284;BME280;56085;48.910;9.478;2023-05-10T06:23:23;97656.69;;;34.10;24.09
36284;BME280;56085;48.910;9.478;2023-05-10T06:25:50;97593.56;;;34.35;24.31
36284;BME280;56085;48.910;9.478;2023-05-10T06:28:16;97623.19;;;33.45;24.12
36284;BME280;56085;48.910;9.478;2023-05-10T06:30:41;97652.44;;;34.17;24.41
36284;BME280;56085;48.910;9.478;2023-05-10T06:33:06;97643.16;;;33.20;24.63
36284;BME280;56085;48.910;9.478;2023-05-10T06:35:32;97629.19;;;33.71;24.28
36284;BME280;56085;48.910;9.478;2023-05-10T06:37:58;97629.69;;;34.00;24.76
36284;BME280;56085;48.910;9.478;2023-05-10T06:40:23;97635.91;;;32.24;24.56
36284;BME280;56085;48.910;9.478;2023-05-10T06:42:49;97658.97;;;33.32;24.50
36284;BME280;56085;48.910;9.478;2023-05-10T06:45:14;97656.31;;;34.20;24.60
36284;BME280;56085;48.910;9.478;2023-05-10T06:47:40;97667.16;;;33.53;24.37
36284;BME280;56085;48.910;9.478;2023-05-10T06:50:09;97718.22;;;34.09;24.14
36284;BME280;56085;48.910;9.478;2023-05-10T06:52:36;97653.91;;;34.24;24.16
36284;BME280;56085;48.910;9.478;2023-05-10T06:55:02;97649.09;;;32.92;24.68
36284;BME280;56085;48.910;9.478;2023-05-10T06:57:28;97650.44;;;33.27;24.11
36284;BME280;56085;48.910;9.478;2023-05-10T06:59:53;97623.75;;;32.71;24.60
36284;BME280;56085;48.910;9.478;2023-05-10T07:02:20;97610.50;;;32.62;24.31
36284;BME280;56085;48.910;9.478;2023-05-10T07:04:47;97701.63;;;33.00;24.47
36284;BME280;56085;48.910;9.478;2023-05-10T07:07:12;97680.41;;;33.20;24.55
36284;BME280;56085;48.910;9.478;2023-05-10T07:09:38;97631.28;;;34.20;24.71
36284;BME280;56085;48.910;9.478;2023-05-10T07:12:04;97647.44;;;33.74;24.37
36284;BME280;56085;48.910;9.478;2023-05-10T07:14:29;97617.28;;;34.11;24.34
36284;BME280;56085;48.910;9.478;2023-05-10T07:16:54;97654.34;;;34.09;24.36
36284;BME280;56085;48.910;9.478;2023-05-10T07:19:20;97645.22;;;33.86;24.26
36284;BME280;56085;48.910;9.478;2023-05-10T07:21:45;97647.31;;;35.43;24.35
36284;BME280;56085;48.910;9.478;2023-05-10T07:24:10;97673.09;;;34.98;23.93
36284;BME280;56085;48.910;9.478;2023-05-10T07:26:36;97643.38;;;33.88;23.93
36284;BME280;56085;48.910;9.478;2023-05-10T07:29:01;97671.69;;;35.04;23.91
36284;BME280;56085;48.910;9.478;2023-05-10T07:31:27;97665.25;;;36.22;24.17
36284;BME280;56085;48.910;9.478;2023-05-10T07:33:52;97629.16;;;36.21;23.83
36284;BME280;56085;48.910;9.478;2023-05-10T07:36:18;97631.03;;;36.18;23.63
36284;BME280;56085;48.910;9.478;2023-05-10T07:38:43;97651.25;;;36.66;23.45
36284;BME280;56085;48.910;9.478;2023-05-10T07:41:09;97670.00;;;36.06;23.50
36284;BME280;56085;48.910;9.478;2023-05-10T07:43:34;97629.13;;;37.09;23.21
36284;BME280;56085;48.910;9.478;2023-05-10T07:45:59;97640.34;;;36.51;23.45
36284;BME280;56085;48.910;9.478;2023-05-10T07:48:25;97702.63;;;35.95;23.34
36284;BME280;56085;48.910;9.478;2023-05-10T07:50:51;97639.59;;;36.38;23.51
36284;BME280;56085;48.910;9.478;2023-05-10T07:53:16;97647.75;;;36.47;23.27
36284;BME280;56085;48.910;9.478;2023-05-10T07:55:41;97661.25;;;36.25;22.91
36284;BME280;56085;48.910;9.478;2023-05-10T07:58:07;97636.69;;;36.51;23.04
36284;BME280;56085;48.910;9.478;2023-05-10T08:00:32;97660.25;;;36.63;22.86
36284;BME280;56085;48.910;9.478;2023-05-10T08:02:57;97652.75;;;37.29;22.58
36284;BME280;56085;48.910;9.478;2023-05-10T08:05:23;97651.38;;;36.74;22.64
36284;BME280;56085;48.910;9.478;2023-05-10T08:07:48;97653.69;;;36.76;22.91
36284;BME280;56085;48.910;9.478;2023-05-10T08:10:13;97647.41;;;36.77;22.53
36284;BME280;56085;48.910;9.478;2023-05-10T08:12:38;97648.16;;;36.78;22.55
36284;BME280;56085;48.910;9.478;2023-05-10T08:15:04;97688.94;;;36.28;22.69
36284;BME280;56085;48.910;9.478;2023-05-10T08:17:29;97633.56;;;36.49;22.66
36284;BME280;56085;48.910;9.478;2023-05-10T08:19:55;97629.75;;;37.15;22.19
36284;BME280;56085;48.910;9.478;2023-05-10T08:22:20;97657.78;;;36.80;22.64
36284;BME280;56085;48.910;9.478;2023-05-10T08:24:45;97661.00;;;36.77;22.07
36284;BME280;56085;48.910;9.478;2023-05-10T08:27:11;97656.38;;;35.93;22.39
36284;BME280;56085;48.910;9.478;2023-05-10T08:29:37;97733.19;;;35.98;22.27
36284;BME280;56085;48.910;9.478;2023-05-10T08:32:02;97658.28;;;36.31;22.57
36284;BME280;56085;48.910;9.478;2023-05-10T08:34:28;97664.69;;;35.84;22.24
36284;BME280;56085;48.910;9.478;2023-05-10T08:36:53;97667.13;;;36.20;22.17
36284;BME280;56085;48.910;9.478;2023-05-10T08:39:18;97694.97;;;35.85;22.41
36284;BME280;56085;48.910;9.478;2023-05-10T08:41:44;97715.81;;;36.71;22.44
36284;BME280;56085;48.910;9.478;2023-05-10T08:44:10;97682.38;;;36.68;22.39
36284;BME280;56085;48.910;9.478;2023-05-10T08:46:37;97738.94;;;35.98;22.10
36284;BME280;56085;48.910;9.478;2023-05-10T08:49:06;97804.72;;;35.70;22.29
36284;BME280;56085;48.910;9.478;2023-05-10T08:51:35;97783.13;;;35.63;22.07
36284;BME280;56085;48.910;9.478;2023-05-10T08:54:02;97753.94;;;35.59;22.24
36284;BME280;56085;48.910;9.478;2023-05-10T08:56:28;97691.69;;;35.61;22.33
36284;BME280;56085;48.910;9.478;2023-05-10T08:58:54;97740.09;;;34.62;22.19
36284;BME280;56085;48.910;9.478;2023-05-10T09:01:21;97775.50;;;34.70;22.56
36284;BME280;56085;48.910;9.478;2023-05-10T09:03:46;97708.38;;;35.63;22.28
36284;BME280;56085;48.910;9.478;2023-05-10T09:06:12;97725.72;;;35.06;22.17
36284;BME280;56085;48.910;9.478;2023-05-10T09:08:38;97754.53;;;34.75;22.33
36284;BME280;56085;48.910;9.478;2023-05-10T09:11:05;97673.06;;;34.16;22.49
36284;BME280;56085;48.910;9.478;2023-05-10T09:13:30;97736.84;;;34.96;22.45
36284;BME280;56085;48.910;9.478;2023-05-10T09:15:56;97668.78;;;34.47;22.20
36284;BME280;56085;48.910;9.478;2023-05-10T09:18:22;97688.41;;;33.33;22.29
36284;BME280;56085;48.910;9.478;2023-05-10T09:20:48;97734.47;;;33.35;22.26
36284;BME280;56085;48.910;9.478;2023-05-10T09:23:14;97744.41;;;34.25;22.68
36284;BME280;56085;48.910;9.478;2023-05-10T09:25:41;97840.41;;;34.79;22.19
36284;BME280;56085;48.910;9.478;2023-05-10T09:28:07;97733.56;;;34.42;22.39
36284;BME280;56085;48.910;9.478;2023-05-10T09:30:34;97684.59;;;34.10;22.09
36284;BME280;56085;48.910;9.478;2023-05-10T09:32:59;97782.97;;;33.27;21.80
36284;BME280;56085;48.910;9.478;2023-05-10T09:35:27;97803.63;;;33.56;22.03
36284;BME280;56085;48.910;9.478;2023-05-10T09:37:54;97776.97;;;34.33;22.22
36284;BME280;56085;48.910;9.478;2023-05-10T09:40:22;97837.31;;;33.86;22.39
36284;BME280;56085;48.910;9.478;2023-05-10T09:45:25;97713.91;;;34.71;22.38
36284;BME280;56085;48.910;9.478;2023-05-10T09:47:51;97747.84;;;33.93;21.99
36284;BME280;56085;48.910;9.478;2023-05-10T09:50:16;97745.19;;;33.29;21.98
36284;BME280;56085;48.910;9.478;2023-05-10T09:52:59;97811.47;;;33.91;21.83
36284;BME280;56085;48.910;9.478;2023-05-10T09:55:26;97789.97;;;32.62;22.36
36284;BME280;56085;48.910;9.478;2023-05-10T09:58:02;97784.94;;;32.96;22.32
36284;BME280;56085;48.910;9.478;2023-05-10T10:00:34;97858.94;;;34.23;22.25
36284;BME280;56085;48.910;9.478;2023-05-10T10:03:00;97770.63;;;34.40;22.40
36284;BME280;56085;48.910;9.478;2023-05-10T10:05:30;97831.00;;;35.03;22.14
36284;BME280;56085;48.910;9.478;2023-05-10T10:08:00;97870.50;;;35.16;21.93
36284;BME280;56085;48.910;9.478;2023-05-10T10:10:27;97792.78;;;35.27;22.31
36284;BME280;56085;48.910;9.478;2023-05-10T10:12:53;97780.72;;;35.99;21.91
36284;BME280;56085;48.910;9.478;2023-05-10T10:15:20;97851.13;;;36.31;21.86
36284;BME280;56085;48.910;9.478;2023-05-10T10:17:46;97732.00;;;36.61;21.81
36284;BME280;56085;48.910;9.478;2023-05-10T10:20:12;97746.41;;;36.74;21.75
36284;BME280;56085;48.910;9.478;2023-05-10T10:22:37;97732.75;;;36.88;21.71
36284;BME280;56085;48.910;9.478;2023-05-10T10:25:04;97784.88;;;37.72;21.42
36284;BME280;56085;48.910;9.478;2023-05-10T10:30:31;97766.88;;;37.80;20.93
36284;BME280;56085;48.910;9.478;2023-05-10T10:35:29;97758.59;;;37.63;20.81
36284;BME280;56085;48.910;9.478;2023-05-10T10:37:54;97730.75;;;37.65;21.17
36284;BME280;56085;48.910;9.478;2023-05-10T10:42:52;97729.78;;;36.67;20.93
36284;BME280;56085;48.910;9.478;2023-05-10T10:45:19;97733.81;;;37.67;20.83
36284;BME280;56085;48.910;9.478;2023-05-10T10:47:45;97700.38;;;38.14;20.93
36284;BME280;56085;48.910;9.478;2023-05-10T10:50:10;97706.25;;;37.37;20.85
36284;BME280;56085;48.910;9.478;2023-05-10T10:55:09;97770.13;;;35.94;20.69
36284;BME280;56085;48.910;9.478;2023-05-10T11:03:09;97901.13;;;34.58;20.67
36284;BME280;56085;48.910;9.478;2023-05-10T11:05:45;97874.19;;;33.65;20.67
36284;BME280;56085;48.910;9.478;2023-05-10T11:11:13;97822.66;;;33.53;20.60
36284;BME280;56085;48.910;9.478;2023-05-10T11:13:41;97829.63;;;33.16;20.85
36284;BME280;56085;48.910;9.478;2023-05-10T11:16:18;97743.94;;;33.24;20.95
36284;BME280;56085;48.910;9.478;2023-05-10T11:18:54;97818.13;;;33.28;21.03
36284;BME280;56085;48.910;9.478;2023-05-10T11:21:21;97781.84;;;33.42;20.89
36284;BME280;56085;48.910;9.478;2023-05-10T11:26:13;97737.53;;;36.85;20.69
36284;BME280;56085;48.910;9.478;2023-05-10T11:31:08;97701.91;;;37.10;20.73
36284;BME280;56085;48.910;9.478;2023-05-10T11:33:44;97796.66;;;37.27;20.79
36284;BME280;56085;48.910;9.478;2023-05-10T11:38:42;97695.25;;;36.13;20.63
36284;BME280;56085;48.910;9.478;2023-05-10T11:41:11;97842.63;;;35.11;20.56
36284;BME280;56085;48.910;9.478;2023-05-10T11:43:38;97828.91;;;33.93;20.71
36284;BME280;56085;48.910;9.478;2023-05-10T11:46:08;97893.44;;;34.12;20.34
36284;BME280;56085;48.910;9.478;2023-05-10T11:48:35;97773.50;;;33.80;20.57
36284;BME280;56085;48.910;9.478;2023-05-10T11:51:01;97760.78;;;34.30;20.55
36284;BME280;56085;48.910;9.478;2023-05-10T11:53:27;97781.84;;;35.07;20.43
36284;BME280;56085;48.910;9.478;2023-05-10T11:55:52;97743.84;;;35.52;20.67
36284;BME280;56085;48.910;9.478;2023-05-10T11:58:18;97771.63;;;35.63;20.31
36284;BME280;56085;48.910;9.478;2023-05-10T12:00:44;97777.75;;;36.51;20.46
36284;BME280;56085;48.910;9.478;2023-05-10T12:03:11;97772.25;;;37.28;20.72
36284;BME280;56085;48.910;9.478;2023-05-10T12:05:37;97729.63;;;37.47;20.21
36284;BME280;56085;48.910;9.478;2023-05-10T12:08:13;97876.44;;;37.32;19.66
36284;BME280;56085;48.910;9.478;2023-05-10T12:10:38;97747.25;;;36.96;19.98
36284;BME280;56085;48.910;9.478;2023-05-10T12:13:04;97772.84;;;36.59;19.89
36284;BME280;56085;48.910;9.478;2023-05-10T12:15:29;97729.91;;;36.61;19.86
36284;BME280;56085;48.910;9.478;2023-05-10T12:17:56;97874.38;;;35.62;19.84
36284;BME280;56085;48.910;9.478;2023-05-10T12:20:26;97825.63;;;36.22;19.66
36284;BME280;56085;48.910;9.478;2023-05-10T12:22:54;97838.88;;;36.71;19.53
36284;BME280;56085;48.910;9.478;2023-05-10T12:25:21;97807.75;;;35.77;19.94
36284;BME280;56085;48.910;9.478;2023-05-10T12:27:50;97892.38;;;35.63;19.67
36284;BME280;56085;48.910;9.478;2023-05-10T12:30:23;97865.19;;;35.83;19.66
36284;BME280;56085;48.910;9.478;2023-05-10T12:32:49;97764.81;;;35.47;19.75
36284;BME280;56085;48.910;9.478;2023-05-10T12:35:16;97797.09;;;36.37;19.82
36284;BME280;56085;48.910;9.478;2023-05-10T12:37:44;97886.34;;;36.50;19.43
36284;BME280;56085;48.910;9.478;2023-05-10T12:40:10;97822.03;;;35.32;19.66
36284;BME280;56085;48.910;9.478;2023-05-10T12:42:37;97867.28;;;34.82;19.62
36284;BME280;56085;48.910;9.478;2023-05-10T12:45:04;97834.22;;;35.38;19.54
36284;BME280;56085;48.910;9.478;2023-05-10T12:47:31;97797.25;;;34.05;20.08
36284;BME280;56085;48.910;9.478;2023-05-10T12:49:56;97803.94;;;34.19;19.86
36284;BME280;56085;48.910;9.478;2023-05-10T12:52:22;97781.44;;;35.16;19.70
36284;BME280;56085;48.910;9.478;2023-05-10T12:54:47;97772.19;;;34.60;19.98
36284;BME280;56085;48.910;9.478;2023-05-10T12:57:13;97815.84;;;35.22;19.61
36284;BME280;56085;48.910;9.478;2023-05-10T12:59:38;97790.59;;;35.53;19.54
36284;BME280;56085;48.910;9.478;2023-05-10T13:02:04;97804.06;;;35.06;19.87
36284;BME280;56085;48.910;9.478;2023-05-10T13:04:30;97795.28;;;34.74;19.75
36284;BME280;56085;48.910;9.478;2023-05-10T13:06:55;97816.00;;;34.42;19.59
36284;BME280;56085;48.910;9.478;2023-05-10T13:09:23;97785.84;;;34.30;19.90
36284;BME280;56085;48.910;9.478;2023-05-10T13:11:50;97826.63;;;33.45;19.69
36284;BME280;56085;48.910;9.478;2023-05-10T13:14:15;97816.16;;;33.53;19.98
36284;BME280;56085;48.910;9.478;2023-05-10T13:16:40;97831.44;;;33.14;19.94
36284;BME280;56085;48.910;9.478;2023-05-10T13:19:05;97826.25;;;33.60;19.64
36284;BME280;56085;48.910;9.478;2023-05-10T13:21:31;97802.22;;;33.68;20.06
36284;BME280;56085;48.910;9.478;2023-05-10T13:23:56;97789.38;;;32.97;19.79
36284;BME280;56085;48.910;9.478;2023-05-10T13:26:21;97795.47;;;32.54;20.10
36284;BME280;56085;48.910;9.478;2023-05-10T13:28:47;97802.34;;;33.04;19.93
36284;BME280;56085;48.910;9.478;2023-05-10T13:31:13;97845.78;;;33.08;19.67
36284;BME280;56085;48.910;9.478;2023-05-10T13:33:39;97829.38;;;33.62;19.54
36284;BME280;56085;48.910;9.478;2023-05-10T13:36:04;97766.84;;;34.95;19.72
36284;BME280;56085;48.910;9.478;2023-05-10T13:38:30;97792.56;;;33.71;19.51
36284;BME280;56085;48.910;9.478;2023-05-10T13:40:55;97817.41;;;34.54;19.56
36284;BME280;56085;48.910;9.478;2023-05-10T13:43:20;97805.25;;;34.18;19.62
36284;BME280;56085;48.910;9.478;2023-05-10T13:45:46;97802.94;;;34.10;19.49